Terminal Aerodrome Forecast
Issued by NWS Wakefield, VA

Home | Current Version | Previous Version | Text Only | Print | Product List | Glossary On
Versions: 1 2 3 4 5 6 7 8 9 10 11 12 13 14 15 16 17 18 19
000
FTUS41 KAKQ 021344 AAA
TAFSBY
TAF AMD
KSBY 021344Z 0214/0312 04010KT 4SM BR BKN006 BKN020
     FM022000 04008KT 5SM BR OVC008
     FM030000 03008KT 4SM BR OVC003=

USA.gov is the U.S. government's official web portal to all federal, state and local government web resources and services.